CheckWX is a tool to help pilots better visualize weather data.  It is not intended as a substitute for an official pre-flight weather briefing.

07:40:05 UTC

KSRB METAR
Upper Cumberland Regional Airport
Sparta, Tennessee, USA
Current

25 mins ago

KSRB 230715Z AUTO 00000KT 10SM CLR 13/12 A3009 RMK A01
Observed
Sep-23 @ 07:15 UTC
Visibility
10 SM
Flight Rules
VFR
Cloud Levels
  • Clear skies
Temperature
13°C / 55°F
Dewpoint
12°C / 54°F
Humidity
94%
Altimeter
30.09" Hg
Pressure
1018.92 hPa
Previous

45 mins ago

KSRB 230655Z AUTO 00000KT 10SM CLR 13/12 A3009 RMK A01
Observed
Sep-23 @ 06:55 UTC
Visibility
10 SM
Flight Rules
VFR
Cloud Levels
  • Clear skies
Temperature
13°C / 55°F
Dewpoint
12°C / 54°F
Humidity
94%
Altimeter
30.09" Hg
Pressure
1018.92 hPa
Previous

1 hour ago

KSRB 230635Z AUTO 00000KT 10SM CLR 13/13 A3010 RMK A01
Observed
Sep-23 @ 06:35 UTC
Visibility
10 SM
Flight Rules
VFR
Cloud Levels
  • Clear skies
Temperature
13°C / 55°F
Dewpoint
13°C / 55°F
Humidity
100%
Altimeter
30.1" Hg
Pressure
1019.32 hPa